createdAt,value
2023-04-20T00:00:51.566Z,94974.00
2023-04-20T00:01:51.638Z,94972.00
2023-04-20T00:02:51.818Z,94970.00
2023-04-20T00:03:52.002Z,94968.00
2023-04-20T00:04:51.790Z,94970.00
2023-04-20T00:05:51.782Z,94968.00
2023-04-20T00:06:51.818Z,94964.00
2023-04-20T00:07:51.861Z,94962.00
2023-04-20T00:08:51.917Z,94954.00
2023-04-20T00:09:51.962Z,94960.00
2023-04-20T00:10:51.979Z,94960.00
2023-04-20T00:11:52.035Z,94958.00
2023-04-20T00:12:52.087Z,94956.00
2023-04-20T00:13:52.127Z,94956.00
2023-04-20T00:14:52.250Z,94956.00
2023-04-20T00:15:52.229Z,94954.00
2023-04-20T00:16:52.278Z,94954.00
2023-04-20T00:17:52.376Z,94956.00
2023-04-20T00:18:52.391Z,94954.00
2023-04-20T00:19:52.410Z,94948.00
2023-04-20T00:20:52.474Z,94952.00
2023-04-20T00:21:52.520Z,94946.00
2023-04-20T00:22:52.578Z,94942.00
2023-04-20T00:23:52.674Z,94942.00
2023-04-20T00:24:52.698Z,94942.00
2023-04-20T00:25:52.764Z,94938.00
2023-04-20T00:26:52.801Z,94942.00
2023-04-20T00:27:52.864Z,94936.00
2023-04-20T00:28:52.908Z,94936.00
2023-04-20T00:29:52.944Z,94934.00
2023-04-20T00:30:53.020Z,94934.00
2023-04-20T00:31:53.048Z,94931.00
2023-04-20T00:32:53.152Z,94931.00
2023-04-20T00:33:53.163Z,94931.00
2023-04-20T00:34:53.216Z,94931.00
2023-04-20T00:35:53.266Z,94934.00
2023-04-20T00:36:53.317Z,94931.00
2023-04-20T00:37:53.375Z,94929.00
2023-04-20T00:38:53.440Z,94929.00
2023-04-20T00:39:53.479Z,94925.00
2023-04-20T00:40:53.540Z,94925.00
2023-04-20T00:41:53.608Z,94923.00
2023-04-20T00:42:53.647Z,94923.00
2023-04-20T00:43:53.749Z,94923.00
2023-04-20T00:44:53.781Z,94921.00
2023-04-20T00:45:53.910Z,94919.00
2023-04-20T00:46:53.881Z,94917.00
2023-04-20T00:47:53.941Z,94917.00
2023-04-20T00:48:54.035Z,94915.00
2023-04-20T00:49:54.034Z,94915.00
2023-04-20T00:50:54.092Z,94913.00
2023-04-20T00:51:54.153Z,94911.00
2023-04-20T00:52:54.223Z,94909.00
2023-04-20T00:53:54.261Z,94909.00
2023-04-20T00:54:54.309Z,94909.00
2023-04-20T00:55:54.363Z,94905.00
2023-04-20T00:56:54.446Z,94905.00
2023-04-20T00:57:54.505Z,94899.00
2023-04-20T00:58:54.539Z,94901.00
2023-04-20T00:59:54.591Z,94895.00
2023-04-20T01:00:54.646Z,94888.00
2023-04-20T01:01:54.720Z,94895.00
2023-04-20T01:02:54.851Z,94888.00
2023-04-20T01:03:54.889Z,94888.00
2023-04-20T01:04:54.871Z,94886.00
2023-04-20T01:05:54.937Z,94884.00
2023-04-20T01:06:54.988Z,94884.00
2023-04-20T01:07:55.045Z,94882.00
2023-04-20T01:08:55.102Z,94882.00
2023-04-20T01:09:55.160Z,94882.00
2023-04-20T01:10:55.222Z,94882.00
2023-04-20T01:11:55.276Z,94878.00
2023-04-20T01:12:55.348Z,94878.00
2023-04-20T01:13:55.422Z,94880.00
2023-04-20T01:14:55.468Z,94880.00
2023-04-20T01:15:55.588Z,94878.00
2023-04-20T01:16:55.565Z,94874.00
2023-04-20T01:17:55.681Z,94872.00
2023-04-20T01:18:55.695Z,94870.00
2023-04-20T01:19:55.762Z,94874.00
2023-04-20T01:20:55.827Z,94870.00
2023-04-20T01:21:55.892Z,94870.00
2023-04-20T01:22:55.942Z,94868.00
2023-04-20T01:23:56.021Z,94866.00
2023-04-20T01:24:56.065Z,94864.00
2023-04-20T01:25:56.118Z,94864.00
2023-04-20T01:26:56.184Z,94864.00
2023-04-20T01:27:56.239Z,94862.00
2023-04-20T01:28:56.295Z,94862.00
2023-04-20T01:29:56.383Z,94864.00
2023-04-20T01:30:56.393Z,94864.00
2023-04-20T01:31:56.531Z,94862.00
2023-04-20T01:32:56.546Z,94864.00
2023-04-20T01:33:56.565Z,94864.00
2023-04-20T01:34:56.621Z,94864.00
2023-04-20T01:35:56.687Z,94862.00
2023-04-20T01:36:56.752Z,94862.00
2023-04-20T01:37:56.818Z,94864.00
2023-04-20T01:38:56.864Z,94860.00
2023-04-20T01:39:56.966Z,94862.00
2023-04-20T01:40:56.997Z,94858.00
2023-04-20T01:41:57.054Z,94860.00
2023-04-20T01:42:57.120Z,94854.00
2023-04-20T01:43:57.180Z,94852.00
2023-04-20T01:44:57.238Z,94850.00
2023-04-20T01:45:57.394Z,94850.00
2023-04-20T01:46:57.397Z,94848.00
2023-04-20T01:47:57.440Z,94848.00
2023-04-20T01:48:57.484Z,94852.00
2023-04-20T01:49:57.547Z,94850.00
2023-04-20T01:50:57.608Z,94848.00
2023-04-20T01:51:57.676Z,94848.00
2023-04-20T01:52:57.736Z,94846.00
2023-04-20T01:53:57.795Z,94846.00
2023-04-20T01:54:57.873Z,94844.00
2023-04-20T01:55:57.916Z,94848.00
2023-04-20T01:56:57.969Z,94844.00
2023-04-20T01:57:58.027Z,94844.00
2023-04-20T01:58:58.082Z,94844.00
2023-04-20T01:59:58.165Z,94842.00
2023-04-20T02:00:58.285Z,94841.00
2023-04-20T02:01:58.460Z,94842.00
2023-04-20T02:02:58.443Z,94837.00
2023-04-20T02:03:58.583Z,94835.00
2023-04-20T02:04:58.421Z,94831.00
2023-04-20T02:05:58.479Z,94831.00
2023-04-20T02:06:58.536Z,94831.00
2023-04-20T02:07:58.597Z,94831.00
2023-04-20T02:08:58.641Z,94831.00
2023-04-20T02:09:58.700Z,94835.00
2023-04-20T02:10:58.791Z,94831.00
2023-04-20T02:11:58.826Z,94829.00
2023-04-20T02:12:58.870Z,94829.00
2023-04-20T02:13:58.930Z,94829.00
2023-04-20T02:14:58.989Z,94829.00
2023-04-20T02:15:59.053Z,94829.00
2023-04-20T02:16:59.143Z,94831.00
2023-04-20T02:17:59.256Z,94829.00
2023-04-20T02:18:59.241Z,94831.00
2023-04-20T02:19:59.290Z,94831.00
2023-04-20T02:20:59.348Z,94833.00
2023-04-20T02:21:59.405Z,94831.00
2023-04-20T02:22:59.465Z,94831.00
2023-04-20T02:23:59.525Z,94829.00
2023-04-20T02:24:59.585Z,94829.00
2023-04-20T02:25:59.653Z,94831.00
2023-04-20T02:26:59.726Z,94833.00
2023-04-20T02:27:59.773Z,94831.00
2023-04-20T02:28:59.838Z,94833.00
2023-04-20T02:29:59.892Z,94837.00
2023-04-20T02:31:00.006Z,94837.00
2023-04-20T02:32:00.056Z,94839.00
2023-04-20T02:33:00.151Z,94837.00
2023-04-20T02:34:00.174Z,94839.00
2023-04-20T02:35:00.227Z,94839.00
2023-04-20T02:36:00.264Z,94839.00
2023-04-20T02:37:00.326Z,94837.00
2023-04-20T02:38:00.389Z,94835.00
2023-04-20T02:39:00.458Z,94833.00
2023-04-20T02:40:00.515Z,94829.00
2023-04-20T02:41:00.589Z,94823.00
2023-04-20T02:42:00.639Z,94817.00
2023-04-20T02:43:00.699Z,94817.00
2023-04-20T02:44:00.761Z,94815.00
2023-04-20T02:45:00.812Z,94815.00
2023-04-20T02:46:00.906Z,94813.00
2023-04-20T02:47:01.582Z,94813.00
2023-04-20T02:48:01.067Z,94811.00
2023-04-20T02:49:01.059Z,94807.00
2023-04-20T02:50:01.140Z,94807.00
2023-04-20T02:51:01.208Z,94809.00
2023-04-20T02:52:01.243Z,94809.00
2023-04-20T02:53:01.307Z,94807.00
2023-04-20T02:54:01.362Z,94805.00
2023-04-20T02:55:01.418Z,94807.00
2023-04-20T02:56:01.488Z,94805.00
2023-04-20T02:57:01.553Z,94805.00
2023-04-20T02:58:01.615Z,94805.00
2023-04-20T02:59:01.661Z,94803.00
2023-04-20T03:00:01.720Z,94803.00
2023-04-20T03:01:01.868Z,94801.00
2023-04-20T03:02:01.938Z,94797.00
2023-04-20T03:03:01.997Z,94799.00
2023-04-20T03:04:02.190Z,94795.00
2023-04-20T03:05:02.044Z,94795.00
2023-04-20T03:06:02.187Z,94791.00
2023-04-20T03:07:02.174Z,94789.00
2023-04-20T03:08:02.219Z,94793.00
2023-04-20T03:09:02.283Z,94787.00
2023-04-20T03:10:02.349Z,94787.00
2023-04-20T03:11:02.408Z,94789.00
2023-04-20T03:12:02.482Z,94787.00
2023-04-20T03:13:02.524Z,94791.00
2023-04-20T03:14:02.588Z,94791.00
2023-04-20T03:15:02.656Z,94787.00
2023-04-20T03:16:02.729Z,94787.00
2023-04-20T03:17:02.778Z,94786.00
2023-04-20T03:18:02.903Z,94789.00
2023-04-20T03:19:02.904Z,94784.00
2023-04-20T03:20:02.963Z,94784.00
2023-04-20T03:21:03.028Z,94782.00
2023-04-20T03:22:03.134Z,94784.00
2023-04-20T03:23:03.147Z,94780.00
2023-04-20T03:24:03.214Z,94778.00
2023-04-20T03:25:03.260Z,94780.00
2023-04-20T03:26:03.314Z,94776.00
2023-04-20T03:27:03.385Z,94774.00
2023-04-20T03:28:03.448Z,94776.00
2023-04-20T03:29:03.499Z,94774.00
2023-04-20T03:30:03.574Z,94774.00
2023-04-20T03:31:03.627Z,94772.00
2023-04-20T03:32:03.745Z,94770.00
2023-04-20T03:33:03.790Z,94772.00
2023-04-20T03:34:03.815Z,94774.00
2023-04-20T03:35:03.888Z,94770.00
2023-04-20T03:36:03.949Z,94776.00
2023-04-20T03:37:04.008Z,94770.00
2023-04-20T03:38:04.083Z,94768.00
2023-04-20T03:39:04.123Z,94768.00
2023-04-20T03:40:04.200Z,94770.00
2023-04-20T03:41:04.237Z,94770.00
2023-04-20T03:42:04.296Z,94774.00
2023-04-20T03:43:04.375Z,94770.00
2023-04-20T03:44:04.421Z,94772.00
2023-04-20T03:45:04.484Z,94768.00
2023-04-20T03:46:04.633Z,94762.00
2023-04-20T03:47:04.604Z,94764.00
2023-04-20T03:48:04.733Z,94762.00
2023-04-20T03:49:04.730Z,94764.00
2023-04-20T03:50:04.797Z,94764.00
2023-04-20T03:51:04.855Z,94762.00
2023-04-20T03:52:04.929Z,94760.00
2023-04-20T03:53:04.981Z,94758.00
2023-04-20T03:54:05.123Z,94758.00
2023-04-20T03:55:05.113Z,94758.00
2023-04-20T03:56:05.172Z,94758.00
2023-04-20T03:57:05.257Z,94758.00
2023-04-20T03:58:05.292Z,94758.00
2023-04-20T03:59:05.352Z,94760.00
2023-04-20T04:00:05.428Z,94760.00
2023-04-20T04:01:05.481Z,94758.00
2023-04-20T04:02:05.645Z,94758.00
2023-04-20T04:03:05.721Z,94758.00
2023-04-20T04:04:06.179Z,94756.00
2023-04-20T04:05:05.937Z,94760.00
2023-04-20T04:06:05.784Z,94760.00
2023-04-20T04:07:05.834Z,94762.00
2023-04-20T04:08:05.894Z,94760.00
2023-04-20T04:09:05.951Z,94760.00
2023-04-20T04:10:06.070Z,94762.00
2023-04-20T04:11:06.079Z,94764.00
2023-04-20T04:12:06.116Z,94762.00
2023-04-20T04:13:06.179Z,94762.00
2023-04-20T04:14:06.226Z,94762.00
2023-04-20T04:15:06.290Z,94762.00
2023-04-20T04:16:06.350Z,94762.00
2023-04-20T04:17:06.444Z,94762.00
2023-04-20T04:18:06.528Z,94762.00
2023-04-20T04:19:07.120Z,94762.00
2023-04-20T04:20:06.586Z,94762.00
2023-04-20T04:21:06.646Z,94764.00
2023-04-20T04:22:06.696Z,94764.00
2023-04-20T04:23:06.767Z,94764.00
2023-04-20T04:24:06.805Z,94762.00
2023-04-20T04:25:06.868Z,94762.00
2023-04-20T04:26:06.955Z,94760.00
2023-04-20T04:27:06.991Z,94760.00
2023-04-20T04:28:07.057Z,94764.00
2023-04-20T04:29:07.100Z,94760.00
2023-04-20T04:30:07.152Z,94760.00
2023-04-20T04:31:07.228Z,94758.00
2023-04-20T04:32:07.271Z,94758.00
2023-04-20T04:33:07.401Z,94756.00
2023-04-20T04:34:07.404Z,94758.00
2023-04-20T04:35:07.455Z,94754.00
2023-04-20T04:36:07.527Z,94756.00
2023-04-20T04:37:07.582Z,94752.00
2023-04-20T04:38:07.642Z,94750.00
2023-04-20T04:39:07.689Z,94750.00
2023-04-20T04:40:07.751Z,94750.00
2023-04-20T04:41:07.805Z,94750.00
2023-04-20T04:42:07.891Z,94748.00
2023-04-20T04:43:07.924Z,94748.00
2023-04-20T04:44:07.981Z,94748.00
2023-04-20T04:45:08.035Z,94752.00
2023-04-20T04:46:08.154Z,94748.00
2023-04-20T04:47:08.143Z,94748.00
2023-04-20T04:48:09.026Z,94750.00
2023-04-20T04:49:08.248Z,94750.00
2023-04-20T04:50:08.306Z,94746.00
2023-04-20T04:51:08.362Z,94744.00
2023-04-20T04:52:08.432Z,94744.00
2023-04-20T04:53:08.486Z,94742.00
2023-04-20T04:54:08.522Z,94742.00
2023-04-20T04:55:08.626Z,94740.00
2023-04-20T04:56:08.637Z,94742.00
2023-04-20T04:57:08.690Z,94740.00
2023-04-20T04:58:08.791Z,94740.00
2023-04-20T04:59:08.815Z,94740.00
2023-04-20T05:00:08.934Z,94740.00
2023-04-20T05:01:08.926Z,94737.00
2023-04-20T05:02:09.050Z,94735.00
2023-04-20T05:03:09.148Z,94735.00
2023-04-20T05:04:09.380Z,94737.00
2023-04-20T05:05:10.010Z,94733.00
2023-04-20T05:06:09.216Z,94733.00
2023-04-20T05:07:09.274Z,94731.00
2023-04-20T05:08:09.350Z,94731.00
2023-04-20T05:09:09.391Z,94729.00
2023-04-20T05:10:09.457Z,94729.00
2023-04-20T05:11:09.516Z,94731.00
2023-04-20T05:12:09.566Z,94731.00
2023-04-20T05:13:09.616Z,94735.00
2023-04-20T05:14:10.176Z,94733.00
2023-04-20T05:15:09.732Z,94737.00
2023-04-20T05:16:09.828Z,94737.00
2023-04-20T05:17:09.857Z,94739.00
2023-04-20T05:18:09.912Z,94740.00
2023-04-20T05:19:10.008Z,94740.00
2023-04-20T05:20:10.050Z,94744.00
2023-04-20T05:21:10.085Z,94744.00
2023-04-20T05:22:10.166Z,94742.00
2023-04-20T05:23:10.211Z,94742.00
2023-04-20T05:24:10.665Z,94740.00
2023-04-20T05:25:12.603Z,94739.00
2023-04-20T05:26:10.325Z,94740.00
2023-04-20T05:27:10.310Z,94742.00
2023-04-20T05:28:10.300Z,94744.00
2023-04-20T05:29:10.328Z,94746.00
2023-04-20T05:30:20.423Z,94748.00
2023-04-20T05:31:10.285Z,94742.00
2023-04-20T05:32:10.321Z,94742.00
2023-04-20T05:33:10.310Z,94750.00
2023-04-20T05:34:10.260Z,94752.00
2023-04-20T05:35:10.257Z,94746.00
2023-04-20T05:36:10.668Z,94754.00
2023-04-20T05:37:10.258Z,94752.00
2023-04-20T05:38:10.247Z,94752.00
2023-04-20T05:39:10.665Z,94750.00
2023-04-20T05:40:10.233Z,94748.00
2023-04-20T05:41:10.664Z,94750.00
2023-04-20T05:42:10.220Z,94748.00
2023-04-20T05:43:10.221Z,94752.00
2023-04-20T05:44:10.204Z,94752.00
2023-04-20T05:45:10.214Z,94752.00
2023-04-20T05:46:10.741Z,94748.00
2023-04-20T05:47:10.667Z,94750.00
2023-04-20T05:48:10.178Z,94746.00
2023-04-20T05:49:10.673Z,94748.00
2023-04-20T05:50:10.182Z,94744.00
2023-04-20T05:51:10.187Z,94740.00
2023-04-20T05:52:10.185Z,94746.00
2023-04-20T05:53:10.188Z,94740.00
2023-04-20T05:54:10.180Z,94737.00
2023-04-20T05:55:10.195Z,94739.00
2023-04-20T05:56:10.219Z,94735.00
2023-04-20T05:57:10.154Z,94737.00
2023-04-20T05:58:13.391Z,94739.00
2023-04-20T05:59:17.833Z,94739.00
2023-04-20T06:00:13.371Z,94739.00
2023-04-20T06:01:10.197Z,94737.00
2023-04-20T06:02:10.268Z,94735.00
2023-04-20T06:03:11.492Z,94737.00
2023-04-20T06:04:17.857Z,94739.00
2023-04-20T06:05:10.554Z,94737.00
2023-04-20T06:06:10.132Z,94737.00
2023-04-20T06:07:10.155Z,94733.00
2023-04-20T06:08:10.327Z,94731.00
2023-04-20T06:09:10.144Z,94735.00
2023-04-20T06:10:13.363Z,94733.00
2023-04-20T06:11:10.143Z,94733.00
2023-04-20T06:12:10.110Z,94731.00
2023-04-20T06:13:10.112Z,94731.00
2023-04-20T06:14:10.104Z,94733.00
2023-04-20T06:15:10.128Z,94731.00
2023-04-20T06:16:10.150Z,94731.00
2023-04-20T06:17:25.748Z,94729.00
2023-04-20T06:18:10.209Z,94727.00
2023-04-20T06:19:10.211Z,94731.00
2023-04-20T06:20:10.061Z,94729.00
2023-04-20T06:21:10.066Z,94731.00
2023-04-20T06:22:10.046Z,94729.00
2023-04-20T06:23:10.043Z,94729.00
2023-04-20T06:24:10.208Z,94727.00
2023-04-20T06:25:10.552Z,94737.00
2023-04-20T06:26:10.026Z,94731.00
2023-04-20T06:27:11.005Z,94731.00
2023-04-20T06:28:10.227Z,94731.00
2023-04-20T06:29:10.979Z,94727.00
2023-04-20T06:30:10.232Z,94729.00
2023-04-20T06:31:10.046Z,94727.00
2023-04-20T06:32:10.237Z,94725.00
2023-04-20T06:33:13.271Z,94723.00
2023-04-20T06:34:10.206Z,94723.00
2023-04-20T06:35:10.316Z,94723.00
2023-04-20T06:36:09.952Z,94723.00
2023-04-20T06:37:10.355Z,94723.00
2023-04-20T06:38:09.911Z,94723.00
2023-04-20T06:39:09.910Z,94727.00
2023-04-20T06:40:09.905Z,94725.00
2023-04-20T06:41:09.916Z,94729.00
2023-04-20T06:42:10.218Z,94727.00
2023-04-20T06:43:10.214Z,94721.00
2023-04-20T06:44:10.210Z,94723.00
2023-04-20T06:45:11.232Z,94721.00
2023-04-20T06:46:09.864Z,94719.00
2023-04-20T06:47:10.888Z,94717.00
2023-04-20T06:48:17.336Z,94713.00
2023-04-20T06:49:10.247Z,94713.00
2023-04-20T06:50:13.147Z,94709.00
2023-04-20T06:51:09.937Z,94711.00
2023-04-20T06:52:09.932Z,94713.00
2023-04-20T06:53:17.317Z,94707.00
2023-04-20T06:54:10.272Z,94711.00
2023-04-20T06:55:10.905Z,94709.00
2023-04-20T06:56:10.902Z,94705.00
2023-04-20T06:57:10.137Z,94707.00
2023-04-20T06:58:10.958Z,94707.00
2023-04-20T06:59:10.222Z,94705.00
2023-04-20T07:00:10.120Z,94711.00
2023-04-20T07:01:10.080Z,94709.00
2023-04-20T07:02:10.373Z,94713.00
2023-04-20T07:03:10.241Z,94705.00
2023-04-20T07:04:10.199Z,94703.00
2023-04-20T07:05:10.233Z,94701.00
2023-04-20T07:06:10.388Z,94695.00
2023-04-20T07:07:14.128Z,94695.00
2023-04-20T07:08:10.233Z,94695.00
2023-04-20T07:09:10.711Z,94693.00
2023-04-20T07:10:10.286Z,94695.00
2023-04-20T07:11:11.771Z,94695.00
2023-04-20T07:12:11.362Z,94699.00
2023-04-20T07:13:10.423Z,94699.00
2023-04-20T07:14:10.762Z,94697.00
2023-04-20T07:15:10.494Z,94699.00
2023-04-20T07:16:10.821Z,94697.00
2023-04-20T07:17:10.498Z,94699.00
2023-04-20T07:18:10.549Z,94697.00
2023-04-20T07:19:10.778Z,94699.00
2023-04-20T07:20:10.520Z,94697.00
2023-04-20T07:21:10.565Z,94701.00
2023-04-20T07:22:10.598Z,94697.00
2023-04-20T07:23:10.645Z,94697.00
2023-04-20T07:24:11.747Z,94695.00
2023-04-20T07:25:10.768Z,94695.00
2023-04-20T07:26:10.819Z,94699.00
2023-04-20T07:27:11.226Z,94695.00
2023-04-20T07:28:11.847Z,94699.00
2023-04-20T07:29:10.898Z,94699.00
2023-04-20T07:30:10.966Z,94699.00
2023-04-20T07:31:10.967Z,94703.00
2023-04-20T07:32:11.241Z,94703.00
2023-04-20T07:33:11.057Z,94701.00
2023-04-20T07:34:11.262Z,94705.00
2023-04-20T07:35:11.020Z,94699.00
2023-04-20T07:36:10.991Z,94697.00
2023-04-20T07:37:12.077Z,94699.00
2023-04-20T07:38:11.258Z,94703.00
2023-04-20T07:39:11.208Z,94703.00
2023-04-20T07:40:11.028Z,94703.00
2023-04-20T07:41:11.034Z,94701.00
2023-04-20T07:42:11.237Z,94701.00
2023-04-20T07:43:11.215Z,94705.00
2023-04-20T07:44:11.515Z,94703.00
2023-04-20T07:45:11.302Z,94701.00
2023-04-20T07:46:11.361Z,94695.00
2023-04-20T07:47:11.414Z,94693.00
2023-04-20T07:48:11.780Z,94692.00
2023-04-20T07:49:11.496Z,94693.00
2023-04-20T07:50:11.533Z,94693.00
2023-04-20T07:51:11.603Z,94690.00
2023-04-20T07:52:17.050Z,94697.00
2023-04-20T07:53:11.774Z,94693.00
2023-04-20T07:54:11.749Z,94693.00
2023-04-20T07:55:11.612Z,94690.00
2023-04-20T07:56:11.589Z,94688.00
2023-04-20T07:57:11.587Z,94690.00
2023-04-20T07:58:11.571Z,94688.00
2023-04-20T07:59:11.717Z,94688.00
2023-04-20T08:00:11.554Z,94688.00
2023-04-20T08:01:11.732Z,94688.00
2023-04-20T08:02:11.608Z,94688.00
2023-04-20T08:03:11.720Z,94686.00
2023-04-20T08:04:11.960Z,94682.00
2023-04-20T08:05:11.842Z,94688.00
2023-04-20T08:06:11.722Z,94686.00
2023-04-20T08:07:11.508Z,94688.00
2023-04-20T08:08:11.727Z,94686.00
2023-04-20T08:09:13.165Z,94684.00
2023-04-20T08:10:11.484Z,94684.00
2023-04-20T08:11:14.911Z,94684.00
2023-04-20T08:12:11.488Z,94682.00
2023-04-20T08:13:11.467Z,94688.00
2023-04-20T08:14:11.474Z,94688.00
2023-04-20T08:15:11.453Z,94686.00
2023-04-20T08:16:11.511Z,94686.00
2023-04-20T08:17:11.442Z,94686.00
2023-04-20T08:18:11.514Z,94686.00
2023-04-20T08:19:11.728Z,94684.00
2023-04-20T08:20:11.424Z,94686.00
2023-04-20T08:21:11.428Z,94684.00
2023-04-20T08:22:11.405Z,94686.00
2023-04-20T08:23:11.402Z,94684.00
2023-04-20T08:24:11.724Z,94688.00
2023-04-20T08:25:11.443Z,94686.00
2023-04-20T08:26:11.387Z,94684.00
2023-04-20T08:27:11.372Z,94686.00
2023-04-20T08:28:19.266Z,94686.00
2023-04-20T08:29:11.733Z,94686.00
2023-04-20T08:30:11.407Z,94686.00
2023-04-20T08:31:11.393Z,94686.00
2023-04-20T08:32:11.361Z,94680.00
2023-04-20T08:33:11.369Z,94680.00
2023-04-20T08:34:11.730Z,94680.00
2023-04-20T08:35:12.230Z,94678.00
2023-04-20T08:36:11.342Z,94678.00
2023-04-20T08:37:11.325Z,94680.00
2023-04-20T08:38:13.863Z,94674.00
2023-04-20T08:39:11.732Z,94676.00
2023-04-20T08:40:11.305Z,94672.00
2023-04-20T08:41:11.368Z,94668.00
2023-04-20T08:42:11.293Z,94670.00
2023-04-20T08:43:11.864Z,94672.00
2023-04-20T08:44:11.742Z,94670.00
2023-04-20T08:45:11.387Z,94666.00
2023-04-20T08:46:11.405Z,94670.00
2023-04-20T08:47:11.429Z,94674.00
2023-04-20T08:48:11.748Z,94670.00
2023-04-20T08:49:11.498Z,94672.00
2023-04-20T08:50:11.522Z,94668.00
2023-04-20T08:51:11.549Z,94670.00
2023-04-20T08:52:11.600Z,94668.00
2023-04-20T08:53:11.748Z,94666.00
2023-04-20T08:54:11.761Z,94668.00
2023-04-20T08:55:11.739Z,94666.00
2023-04-20T08:56:11.765Z,94666.00
2023-04-20T08:57:11.785Z,94668.00
2023-04-20T08:58:11.765Z,94666.00
2023-04-20T08:59:12.242Z,94672.00
2023-04-20T09:00:14.041Z,94674.00
2023-04-20T09:01:12.773Z,94668.00
2023-04-20T09:02:11.895Z,94668.00
2023-04-20T09:03:11.906Z,94668.00
2023-04-20T09:04:11.836Z,94666.00
2023-04-20T09:05:11.843Z,94664.00
2023-04-20T09:06:11.720Z,94666.00
2023-04-20T09:07:11.706Z,94664.00
2023-04-20T09:08:11.704Z,94670.00
2023-04-20T09:09:11.723Z,94670.00
2023-04-20T09:10:11.762Z,94672.00
2023-04-20T09:11:11.686Z,94674.00
2023-04-20T09:12:11.680Z,94674.00
2023-04-20T09:13:11.705Z,94674.00
2023-04-20T09:14:11.751Z,94674.00
2023-04-20T09:15:11.753Z,94676.00
2023-04-20T09:16:11.718Z,94672.00
2023-04-20T09:17:11.659Z,94670.00
2023-04-20T09:18:11.638Z,94668.00
2023-04-20T09:19:13.906Z,94668.00
2023-04-20T09:20:11.746Z,94664.00
2023-04-20T09:21:11.627Z,94664.00
2023-04-20T09:22:11.749Z,94664.00
2023-04-20T09:23:11.607Z,94658.00
2023-04-20T09:24:11.755Z,94656.00
2023-04-20T09:25:11.601Z,94656.00
2023-04-20T09:26:11.589Z,94656.00
2023-04-20T09:27:11.593Z,94654.00
2023-04-20T09:28:11.603Z,94654.00
2023-04-20T09:29:11.888Z,94656.00
2023-04-20T09:30:11.560Z,94648.00
2023-04-20T09:31:12.409Z,94652.00
2023-04-20T09:32:11.614Z,94648.00
2023-04-20T09:33:11.588Z,94648.00
2023-04-20T09:34:11.794Z,94644.00
2023-04-20T09:35:11.535Z,94650.00
2023-04-20T09:36:11.511Z,94646.00
2023-04-20T09:37:11.510Z,94652.00
2023-04-20T09:38:11.776Z,94650.00
2023-04-20T09:39:12.274Z,94650.00
2023-04-20T09:40:11.617Z,94652.00
2023-04-20T09:41:12.479Z,94650.00
2023-04-20T09:42:11.505Z,94648.00
2023-04-20T09:43:12.576Z,94646.00
2023-04-20T09:44:13.505Z,94646.00
2023-04-20T09:45:14.299Z,94641.00
2023-04-20T09:46:14.282Z,94639.00
2023-04-20T09:47:11.435Z,94639.00
2023-04-20T09:48:11.759Z,94642.00
2023-04-20T09:49:23.264Z,94641.00
2023-04-20T09:50:24.820Z,94631.00
2023-04-20T09:51:11.403Z,94629.00
2023-04-20T09:52:12.287Z,94627.00
2023-04-20T09:53:11.781Z,94627.00
2023-04-20T09:54:11.778Z,94623.00
2023-04-20T09:55:11.431Z,94625.00
2023-04-20T09:56:11.398Z,94623.00
2023-04-20T09:57:11.388Z,94621.00
2023-04-20T09:58:12.368Z,94623.00
2023-04-20T09:59:11.415Z,94621.00
2023-04-20T10:00:11.615Z,94623.00
2023-04-20T10:01:11.556Z,94627.00
2023-04-20T10:02:11.568Z,94625.00
2023-04-20T10:03:11.541Z,94623.00
2023-04-20T10:04:12.256Z,94623.00
2023-04-20T10:05:12.337Z,94619.00
2023-04-20T10:06:11.382Z,94617.00
2023-04-20T10:07:11.771Z,94617.00
2023-04-20T10:08:12.269Z,94617.00
2023-04-20T10:09:11.887Z,94617.00
2023-04-20T10:10:11.293Z,94615.00
2023-04-20T10:11:11.291Z,94613.00
2023-04-20T10:12:11.287Z,94609.00
2023-04-20T10:13:11.322Z,94609.00
2023-04-20T10:14:11.358Z,94609.00
2023-04-20T10:15:11.835Z,94609.00
2023-04-20T10:16:11.390Z,94611.00
2023-04-20T10:17:11.654Z,94611.00
2023-04-20T10:18:11.426Z,94609.00
2023-04-20T10:19:11.378Z,94611.00
2023-04-20T10:20:11.781Z,94607.00
2023-04-20T10:21:11.364Z,94611.00
2023-04-20T10:22:11.378Z,94607.00
2023-04-20T10:23:11.419Z,94605.00
2023-04-20T10:24:11.377Z,94599.00
2023-04-20T10:25:11.771Z,94601.00
2023-04-20T10:26:11.442Z,94599.00
2023-04-20T10:27:12.396Z,94601.00
2023-04-20T10:28:11.409Z,94603.00
2023-04-20T10:29:11.416Z,94597.00
2023-04-20T10:30:11.797Z,94601.00
2023-04-20T10:31:11.831Z,94601.00
2023-04-20T10:32:11.424Z,94597.00
2023-04-20T10:33:11.750Z,94597.00
2023-04-20T10:34:11.451Z,94595.00
2023-04-20T10:35:11.437Z,94597.00
2023-04-20T10:36:11.782Z,94595.00
2023-04-20T10:37:11.458Z,94593.00
2023-04-20T10:38:11.460Z,94590.00
2023-04-20T10:39:11.456Z,94590.00
2023-04-20T10:40:11.795Z,94590.00
2023-04-20T10:41:11.478Z,94592.00
2023-04-20T10:42:11.938Z,94588.00
2023-04-20T10:43:12.025Z,94588.00
2023-04-20T10:44:12.043Z,94586.00
2023-04-20T10:45:11.830Z,94586.00
2023-04-20T10:46:12.563Z,94584.00
2023-04-20T10:47:11.497Z,94582.00
2023-04-20T10:48:11.525Z,94584.00
2023-04-20T10:49:11.562Z,94582.00
2023-04-20T10:50:11.499Z,94578.00
2023-04-20T10:51:11.478Z,94578.00
2023-04-20T10:52:11.484Z,94580.00
2023-04-20T10:53:11.476Z,94574.00
2023-04-20T10:54:11.483Z,94576.00
2023-04-20T10:55:11.793Z,94574.00
2023-04-20T10:56:11.464Z,94576.00
2023-04-20T10:57:11.476Z,94576.00
2023-04-20T10:58:11.472Z,94568.00
2023-04-20T10:59:11.449Z,94568.00
2023-04-20T11:00:11.802Z,94566.00
2023-04-20T11:01:11.461Z,94562.00
2023-04-20T11:02:11.534Z,94560.00
2023-04-20T11:03:11.531Z,94560.00
2023-04-20T11:04:11.451Z,94560.00
2023-04-20T11:05:11.950Z,94558.00
2023-04-20T11:06:11.449Z,94558.00
2023-04-20T11:07:11.460Z,94554.00
2023-04-20T11:08:11.461Z,94552.00
2023-04-20T11:09:11.478Z,94554.00
2023-04-20T11:10:11.800Z,94552.00
2023-04-20T11:11:11.483Z,94550.00
2023-04-20T11:12:11.505Z,94550.00
2023-04-20T11:13:11.520Z,94550.00
2023-04-20T11:14:11.595Z,94552.00
2023-04-20T11:15:11.799Z,94550.00
2023-04-20T11:16:11.667Z,94554.00
2023-04-20T11:17:11.741Z,94550.00
2023-04-20T11:18:11.793Z,94554.00
2023-04-20T11:19:11.692Z,94552.00
2023-04-20T11:20:11.846Z,94552.00
2023-04-20T11:21:11.843Z,94554.00
2023-04-20T11:22:12.298Z,94554.00
2023-04-20T11:23:11.912Z,94552.00
2023-04-20T11:24:11.989Z,94552.00
2023-04-20T11:25:11.980Z,94552.00
2023-04-20T11:26:12.036Z,94546.00
2023-04-20T11:27:12.777Z,94550.00
2023-04-20T11:28:12.073Z,94548.00
2023-04-20T11:29:12.535Z,94545.00
2023-04-20T11:30:12.356Z,94545.00
2023-04-20T11:31:12.367Z,94545.00
2023-04-20T11:32:12.418Z,94541.00
2023-04-20T11:33:12.208Z,94543.00
2023-04-20T11:34:12.028Z,94541.00
2023-04-20T11:35:12.027Z,94543.00
2023-04-20T11:36:12.035Z,94539.00
2023-04-20T11:37:12.328Z,94541.00
2023-04-20T11:38:12.066Z,94541.00
2023-04-20T11:39:12.053Z,94539.00
2023-04-20T11:40:12.062Z,94537.00
2023-04-20T11:41:12.067Z,94537.00
2023-04-20T11:42:12.104Z,94533.00
2023-04-20T11:43:12.096Z,94533.00
2023-04-20T11:44:12.102Z,94529.00
2023-04-20T11:45:12.131Z,94527.00